Time;durP1;ratioP1;P1;durP2;ratioP2;P2;SDS_P1;SDS_P2;PMS_P1;PMS_P2;Temp;Humidity;BMP_temperature;BMP_pressure;BME280_temperature;BME280_humidity;BME280_pressure;Samples;Min_cycle;Max_cycle;Signal;HPM_P1;HPM_P2
2021/01/17 00:00:43;;;;;;;8.18;5.55;;;1.00;99.90;;;;;;5050311;28;20220;-49
2021/01/17 00:03:10;;;;;;;6.68;5.18;;;1.10;99.90;;;;;;5050093;28;20232;-49
2021/01/17 00:05:36;;;;;;;9.07;5.60;;;1.10;99.90;;;;;;5050590;28;20223;-48
2021/01/17 00:08:07;;;;;;;6.45;5.13;;;0.60;99.90;;;;;;5050003;28;20269;-49
2021/01/17 00:10:35;;;;;;;8.82;4.63;;;1.50;99.90;;;;;;5051568;28;20249;-49
2021/01/17 00:13:02;;;;;;;7.80;6.00;;;1.10;99.90;;;;;;5053888;28;20752;-50
2021/01/17 00:15:29;;;;;;;7.18;4.97;;;1.20;99.90;;;;;;5054035;28;20221;-47
2021/01/17 00:17:55;;;;;;;7.47;5.55;;;1.10;99.90;;;;;;5054017;28;20261;-48
2021/01/17 00:20:23;;;;;;;9.80;5.45;;;1.40;99.90;;;;;;5054047;28;20223;-49
2021/01/17 00:22:53;;;;;;;6.55;4.93;;;1.10;99.90;;;;;;5053929;28;20295;-49
2021/01/17 00:25:22;;;;;;;7.82;6.00;;;1.30;99.90;;;;;;5053748;28;20283;-49
2021/01/17 00:27:53;;;;;;;9.63;6.40;;;1.20;99.90;;;;;;5053635;28;20692;-49
2021/01/17 00:30:21;;;;;;;9.63;6.13;;;1.00;99.90;;;;;;5053825;28;20215;-49
2021/01/17 00:32:49;;;;;;;9.93;7.45;;;1.10;99.90;;;;;;5053444;28;20693;-49
2021/01/17 00:35:15;;;;;;;9.23;6.10;;;0.90;99.90;;;;;;5053496;28;20312;-48
2021/01/17 00:37:42;;;;;;;10.07;6.85;;;1.20;99.90;;;;;;5053628;28;20227;-49
2021/01/17 00:40:10;;;;;;;9.30;6.60;;;0.90;99.90;;;;;;5053614;28;20217;-48
2021/01/17 00:42:44;;;;;;;9.43;7.20;;;1.00;99.90;;;;;;5053080;28;20232;-48
2021/01/17 00:45:15;;;;;;;9.32;6.32;;;1.20;99.90;;;;;;5053548;28;20702;-48
2021/01/17 00:47:45;;;;;;;9.20;6.55;;;0.90;99.90;;;;;;5035252;28;20258;-49
2021/01/17 00:50:14;;;;;;;9.18;7.00;;;0.90;99.90;;;;;;5035557;28;20244;-48
2021/01/17 00:52:41;;;;;;;11.43;7.43;;;0.90;99.90;;;;;;5035060;28;20262;-48
2021/01/17 00:55:09;;;;;;;9.20;7.20;;;1.00;99.90;;;;;;5053516;28;20187;-49
2021/01/17 00:57:37;;;;;;;10.15;7.90;;;0.90;99.90;;;;;;5035521;28;20532;-48
2021/01/17 01:00:08;;;;;;;13.05;8.82;;;0.90;99.90;;;;;;5035059;28;20206;-49
2021/01/17 01:02:40;;;;;;;11.73;8.30;;;1.00;99.90;;;;;;5034699;28;20598;-49
2021/01/17 01:05:07;;;;;;;9.63;7.00;;;1.00;99.90;;;;;;5052993;28;20227;-49
2021/01/17 01:07:34;;;;;;;10.55;7.60;;;1.00;99.90;;;;;;5052732;28;20255;-50
2021/01/17 01:10:01;;;;;;;9.15;7.45;;;0.90;99.90;;;;;;5053270;28;20196;-49
2021/01/17 01:12:27;;;;;;;12.95;8.35;;;1.00;99.90;;;;;;5053140;28;20315;-50
2021/01/17 01:14:54;;;;;;;10.60;8.32;;;0.90;99.90;;;;;;5053094;28;20197;-49
2021/01/17 01:17:24;;;;;;;10.43;7.53;;;1.00;99.90;;;;;;5053274;28;20204;-50
2021/01/17 01:19:51;;;;;;;9.13;6.32;;;0.90;99.90;;;;;;5053535;28;20252;-50
2021/01/17 01:22:18;;;;;;;10.40;7.43;;;1.00;99.90;;;;;;5051828;28;20207;-49
2021/01/17 01:24:44;;;;;;;10.88;8.00;;;0.80;99.90;;;;;;5053096;28;20587;-50
2021/01/17 01:27:11;;;;;;;11.15;7.90;;;1.00;99.90;;;;;;5052788;28;20234;-50
2021/01/17 01:29:38;;;;;;;9.20;7.18;;;0.60;99.90;;;;;;5052787;28;20279;-49
2021/01/17 01:32:05;;;;;;;13.07;9.45;;;1.00;99.90;;;;;;5053049;28;20224;-49
2021/01/17 01:34:32;;;;;;;9.73;7.55;;;0.90;99.90;;;;;;5052647;28;20210;-49
2021/01/17 01:36:59;;;;;;;10.27;7.90;;;1.10;99.90;;;;;;5052731;28;20236;-49
2021/01/17 01:39:26;;;;;;;9.75;7.10;;;0.80;99.90;;;;;;5052905;28;20285;-50
2021/01/17 01:41:52;;;;;;;9.45;6.78;;;1.10;99.90;;;;;;5052479;28;20205;-50
2021/01/17 01:44:19;;;;;;;13.00;8.02;;;0.80;99.90;;;;;;5053158;28;20226;-49
2021/01/17 01:46:46;;;;;;;8.65;6.97;;;1.10;99.90;;;;;;5053301;28;20201;-50
2021/01/17 01:49:13;;;;;;;10.07;6.88;;;0.90;99.90;;;;;;5052257;28;20253;-50
2021/01/17 01:51:41;;;;;;;10.63;7.60;;;0.90;99.90;;;;;;5052494;28;20200;-49
2021/01/17 01:54:10;;;;;;;10.18;6.85;;;1.10;99.90;;;;;;5052005;28;20196;-49
2021/01/17 01:56:37;;;;;;;11.25;7.05;;;0.90;99.90;;;;;;5034262;28;20211;-50
2021/01/17 01:59:05;;;;;;;10.20;6.75;;;1.00;99.90;;;;;;5052336;28;20230;-50
2021/01/17 02:01:32;;;;;;;9.68;6.35;;;1.00;99.90;;;;;;5052282;28;20279;-49
2021/01/17 02:03:59;;;;;;;9.32;7.15;;;0.70;99.90;;;;;;5051712;28;20193;-49
2021/01/17 02:06:26;;;;;;;9.00;6.55;;;0.90;99.90;;;;;;5052085;28;20245;-50
2021/01/17 02:09:26;;;;;;;7.72;6.20;;;0.90;99.90;;;;;;5033902;28;20231;-50
2021/01/17 02:12:09;;;;;;;12.10;7.45;;;1.00;99.90;;;;;;5049844;28;20337;-50
2021/01/17 02:14:46;;;;;;;11.23;8.02;;;1.00;99.90;;;;;;5051694;28;20238;-50
2021/01/17 02:17:15;;;;;;;10.82;6.95;;;0.20;99.90;;;;;;5051760;28;20212;-50
2021/01/17 02:20:07;;;;;;;8.98;7.05;;;1.10;99.90;;;;;;5051922;28;20214;-49
2021/01/17 02:22:38;;;;;;;9.20;7.07;;;0.90;99.90;;;;;;5048484;28;20231;-49
2021/01/17 02:25:08;;;;;;;8.38;6.50;;;1.00;99.90;;;;;;5052327;28;20493;-50
2021/01/17 02:27:37;;;;;;;7.82;6.30;;;0.90;99.90;;;;;;5051675;28;20236;-49
2021/01/17 02:30:07;;;;;;;9.57;7.60;;;1.00;99.90;;;;;;5051810;28;20200;-50
2021/01/17 02:32:37;;;;;;;6.97;6.20;;;1.00;99.90;;;;;;5051222;28;20202;-50
2021/01/17 02:35:05;;;;;;;11.38;6.95;;;1.10;99.90;;;;;;5051665;28;20196;-49
2021/01/17 02:37:41;;;;;;;10.10;7.22;;;0.90;99.90;;;;;;5051614;28;20272;-49
2021/01/17 02:40:26;;;;;;;8.00;6.47;;;1.00;99.90;;;;;;5051617;28;20192;-50
2021/01/17 02:42:52;;;;;;;10.30;7.85;;;1.00;99.90;;;;;;5051326;28;20612;-50
2021/01/17 02:45:20;;;;;;;11.98;7.32;;;0.40;99.90;;;;;;5051683;28;20216;-50
2021/01/17 02:47:46;;;;;;;9.77;7.60;;;0.90;99.90;;;;;;5051261;28;20588;-50
2021/01/17 02:50:13;;;;;;;7.30;6.40;;;1.10;99.90;;;;;;5033925;28;20200;-48
2021/01/17 02:52:45;;;;;;;10.00;6.57;;;0.40;99.90;;;;;;5051176;28;20253;-48
2021/01/17 02:55:13;;;;;;;7.78;6.70;;;0.90;99.90;;;;;;5051693;28;20672;-48
2021/01/17 02:57:43;;;;;;;11.05;7.57;;;1.00;99.90;;;;;;5051023;28;20222;-49
2021/01/17 03:00:10;;;;;;;9.95;7.45;;;0.90;99.90;;;;;;5051172;28;20200;-48
2021/01/17 03:02:45;;;;;;;9.32;6.65;;;1.00;99.90;;;;;;5050741;28;20250;-49
2021/01/17 03:05:16;;;;;;;9.02;6.57;;;0.80;99.90;;;;;;5051283;28;20183;-48
2021/01/17 03:07:47;;;;;;;9.95;7.00;;;1.20;99.90;;;;;;5050990;28;20243;-48
2021/01/17 03:10:15;;;;;;;10.45;7.18;;;0.90;99.90;;;;;;5051075;28;20253;-49
2021/01/17 03:12:42;;;;;;;10.05;6.78;;;0.80;99.90;;;;;;5050829;28;20199;-48
2021/01/17 03:15:10;;;;;;;8.20;6.68;;;0.90;99.90;;;;;;5051106;28;20190;-49
2021/01/17 03:17:36;;;;;;;12.10;7.28;;;0.80;99.90;;;;;;5051286;28;20218;-49
2021/01/17 03:20:04;;;;;;;10.40;6.75;;;0.60;99.90;;;;;;5050968;28;20196;-49
2021/01/17 03:22:30;;;;;;;8.65;6.60;;;1.00;99.90;;;;;;5050777;28;20285;-48
2021/01/17 03:24:57;;;;;;;9.10;6.85;;;0.70;99.90;;;;;;5051268;28;20223;-49
2021/01/17 03:27:24;;;;;;;12.48;6.95;;;0.80;99.90;;;;;;5050948;28;20705;-48
2021/01/17 03:29:51;;;;;;;9.52;7.25;;;0.80;99.90;;;;;;5051020;28;20202;-48
2021/01/17 03:32:17;;;;;;;9.40;7.60;;;1.00;99.90;;;;;;5050481;28;20248;-48
2021/01/17 03:34:48;;;;;;;10.95;8.05;;;0.90;99.90;;;;;;5049786;28;20225;-49
2021/01/17 03:37:15;;;;;;;15.20;7.07;;;1.00;99.90;;;;;;5049698;28;20215;-48
2021/01/17 03:39:41;;;;;;;9.68;7.50;;;0.60;99.90;;;;;;5050828;28;20279;-48
2021/01/17 03:42:09;;;;;;;10.45;7.85;;;0.80;99.90;;;;;;5033011;28;20200;-48
2021/01/17 03:44:36;;;;;;;10.68;7.45;;;0.90;99.90;;;;;;5050445;28;20240;-49
2021/01/17 03:47:03;;;;;;;13.75;8.00;;;0.70;99.90;;;;;;5054369;28;20201;-47
2021/01/17 03:49:29;;;;;;;10.75;8.07;;;0.90;99.90;;;;;;5054627;28;20230;-49
2021/01/17 03:51:56;;;;;;;10.32;7.45;;;0.90;99.90;;;;;;5054798;28;20512;-49
2021/01/17 03:54:23;;;;;;;9.73;7.32;;;1.00;99.90;;;;;;5054455;28;20235;-49
2021/01/17 03:56:50;;;;;;;10.85;8.57;;;1.00;99.90;;;;;;5036572;28;20421;-49
2021/01/17 03:59:16;;;;;;;10.48;7.72;;;0.90;99.90;;;;;;5054206;28;20219;-48
2021/01/17 04:01:44;;;;;;;9.27;7.75;;;1.00;99.90;;;;;;5054676;28;20192;-49
2021/01/17 04:04:10;;;;;;;12.00;7.95;;;1.00;99.90;;;;;;5054080;28;20230;-49
2021/01/17 04:06:37;;;;;;;11.25;8.25;;;0.90;99.90;;;;;;5054503;28;20203;-49
2021/01/17 04:09:04;;;;;;;12.60;8.30;;;1.00;99.90;;;;;;5056248;28;20233;-49
2021/01/17 04:11:31;;;;;;;12.13;7.70;;;1.00;99.90;;;;;;5054642;28;20219;-49
2021/01/17 04:13:57;;;;;;;12.75;8.38;;;0.80;99.90;;;;;;5054034;28;20501;-49
2021/01/17 04:16:24;;;;;;;11.55;8.02;;;0.90;99.90;;;;;;5054206;28;20239;-48
2021/01/17 04:18:51;;;;;;;9.57;7.30;;;0.90;99.90;;;;;;5054119;28;20211;-49
2021/01/17 04:21:18;;;;;;;11.70;8.25;;;0.90;99.90;;;;;;5054274;28;20199;-49
2021/01/17 04:23:44;;;;;;;9.48;7.38;;;0.80;99.90;;;;;;5053744;28;20282;-49
2021/01/17 04:26:11;;;;;;;11.32;7.47;;;0.90;99.90;;;;;;5053990;28;20192;-49
2021/01/17 04:28:38;;;;;;;10.68;8.43;;;0.80;99.90;;;;;;5053903;28;20235;-49
2021/01/17 04:31:04;;;;;;;12.73;8.25;;;0.90;99.90;;;;;;5054222;28;20508;-49
2021/01/17 04:33:31;;;;;;;12.05;8.43;;;0.70;99.90;;;;;;5053513;28;20195;-49
2021/01/17 04:35:58;;;;;;;11.05;8.38;;;0.60;99.90;;;;;;5053845;28;20261;-49
2021/01/17 04:38:25;;;;;;;11.75;8.95;;;0.50;99.90;;;;;;5053904;28;20218;-49
2021/01/17 04:40:52;;;;;;;10.85;8.52;;;0.60;99.90;;;;;;5053689;28;20597;-49
2021/01/17 04:43:29;;;;;;;12.18;8.25;;;0.90;99.90;;;;;;5053514;28;20262;-49
2021/01/17 04:46:00;;;;;;;8.73;6.95;;;0.60;99.90;;;;;;5035752;28;20210;-49
2021/01/17 04:48:27;;;;;;;10.57;8.00;;;0.80;99.90;;;;;;5053648;28;20220;-49
2021/01/17 04:51:00;;;;;;;14.38;10.32;;;0.50;99.90;;;;;;5053590;28;20281;-48
2021/01/17 04:53:28;;;;;;;11.48;8.65;;;0.60;99.90;;;;;;5053153;28;20219;-48
2021/01/17 04:56:18;;;;;;;12.02;7.93;;;0.60;99.90;;;;;;5053566;28;20202;-48
2021/01/17 04:58:45;;;;;;;10.98;7.97;;;0.60;99.90;;;;;;5052796;28;20289;-48
2021/01/17 05:01:22;;;;;;;10.93;8.27;;;0.80;99.90;;;;;;5035440;28;20261;-49
2021/01/17 05:03:57;;;;;;;10.90;8.10;;;0.60;99.90;;;;;;5035068;28;20199;-48
2021/01/17 05:06:27;;;;;;;9.52;7.65;;;0.80;99.90;;;;;;5053448;28;20724;-49
2021/01/17 05:09:02;;;;;;;13.60;9.10;;;0.60;99.90;;;;;;5053029;28;20628;-48
2021/01/17 05:11:39;;;;;;;12.52;8.68;;;0.80;99.90;;;;;;5053412;28;20202;-48
2021/01/17 05:14:11;;;;;;;13.82;9.07;;;1.40;99.90;;;;;;5053337;28;20241;-48
2021/01/17 05:16:40;;;;;;;15.90;9.25;;;0.70;99.90;;;;;;5053532;28;20263;-48
2021/01/17 05:19:11;;;;;;;13.23;8.70;;;0.80;99.90;;;;;;5053089;28;20218;-49
2021/01/17 05:21:45;;;;;;;14.35;8.48;;;0.80;99.90;;;;;;5053130;28;20211;-48
2021/01/17 05:24:13;;;;;;;13.10;8.43;;;0.80;99.90;;;;;;5052652;28;20200;-48
2021/01/17 05:26:41;;;;;;;12.90;9.20;;;0.70;99.90;;;;;;5053254;28;20202;-48
2021/01/17 05:29:09;;;;;;;13.65;9.15;;;0.60;99.90;;;;;;5053810;28;20226;-49
2021/01/17 05:31:36;;;;;;;9.73;7.22;;;0.90;99.90;;;;;;5052843;28;20192;-49
2021/01/17 05:34:02;;;;;;;13.30;8.98;;;0.80;99.90;;;;;;5052873;28;20559;-49
2021/01/17 05:36:29;;;;;;;11.73;8.00;;;0.60;99.90;;;;;;5034827;28;20300;-48
2021/01/17 05:39:01;;;;;;;13.68;8.75;;;0.90;99.90;;;;;;5052677;28;20222;-48
2021/01/17 05:41:28;;;;;;;12.55;8.60;;;0.70;99.90;;;;;;5052740;28;20277;-48
2021/01/17 05:43:54;;;;;;;14.05;8.80;;;0.80;99.90;;;;;;5052441;28;20598;-48
2021/01/17 05:46:21;;;;;;;13.57;8.35;;;0.90;99.90;;;;;;5052569;28;20647;-47
2021/01/17 05:48:47;;;;;;;11.88;8.38;;;0.90;99.90;;;;;;5052525;28;20223;-48
2021/01/17 05:51:26;;;;;;;11.93;8.40;;;0.90;99.90;;;;;;5052707;28;20463;-48
2021/01/17 05:53:54;;;;;;;12.48;8.32;;;0.90;99.90;;;;;;5051891;28;20342;-48
2021/01/17 05:56:22;;;;;;;11.30;9.35;;;0.80;99.90;;;;;;5052352;28;20630;-49
2021/01/17 05:58:48;;;;;;;10.23;7.45;;;1.00;99.90;;;;;;5052388;28;20243;-48
2021/01/17 06:01:16;;;;;;;13.43;9.10;;;0.90;99.90;;;;;;5052402;28;20318;-48
2021/01/17 06:03:49;;;;;;;10.80;8.13;;;1.00;99.90;;;;;;5051773;28;20238;-49
2021/01/17 06:06:25;;;;;;;11.88;8.32;;;0.90;99.90;;;;;;5052695;28;20246;-49
2021/01/17 06:08:54;;;;;;;10.75;7.15;;;1.00;99.90;;;;;;5051699;28;20237;-49
2021/01/17 06:11:24;;;;;;;15.45;9.13;;;0.90;99.90;;;;;;5052575;28;20192;-47
2021/01/17 06:13:55;;;;;;;11.88;8.23;;;1.00;99.90;;;;;;5052212;28;20204;-50
2021/01/17 06:16:31;;;;;;;11.27;8.70;;;1.00;99.90;;;;;;5053272;28;20199;-48
2021/01/17 06:19:00;;;;;;;13.43;9.25;;;0.80;99.90;;;;;;5053610;28;20567;-47
2021/01/17 06:21:28;;;;;;;15.30;8.95;;;1.00;99.90;;;;;;5053219;28;20206;-48
2021/01/17 06:23:59;;;;;;;11.45;7.80;;;1.00;99.90;;;;;;5052450;28;20237;-48
2021/01/17 06:26:30;;;;;;;11.93;8.45;;;1.30;99.90;;;;;;5053133;28;20192;-48
2021/01/17 06:28:57;;;;;;;11.00;8.10;;;1.20;99.90;;;;;;5052875;28;20299;-47
2021/01/17 06:31:29;;;;;;;7.75;6.65;;;1.40;99.90;;;;;;5053289;28;20199;-48
2021/01/17 06:34:04;;;;;;;10.75;8.43;;;1.40;99.90;;;;;;5052877;28;20194;-47
2021/01/17 06:36:31;;;;;;;10.80;8.18;;;1.20;99.90;;;;;;5052138;28;20187;-47
2021/01/17 06:38:58;;;;;;;10.43;7.40;;;1.50;99.90;;;;;;5052806;28;20308;-48
2021/01/17 06:41:38;;;;;;;10.75;8.65;;;1.20;99.90;;;;;;5052382;28;20690;-48
2021/01/17 06:44:12;;;;;;;9.73;7.63;;;1.40;99.90;;;;;;5034175;28;20203;-47
2021/01/17 06:46:40;;;;;;;11.20;6.97;;;1.60;99.90;;;;;;5053572;28;20249;-47
2021/01/17 06:49:17;;;;;;;11.80;8.15;;;1.40;99.90;;;;;;5052700;28;20617;-49
2021/01/17 06:51:44;;;;;;;9.07;7.03;;;1.50;99.90;;;;;;5051604;28;20227;-47
2021/01/17 06:54:11;;;;;;;10.70;7.63;;;1.40;99.90;;;;;;5051077;28;20565;-48
2021/01/17 06:56:40;;;;;;;9.90;7.55;;;1.50;99.90;;;;;;5052285;28;20196;-49
2021/01/17 06:59:06;;;;;;;10.95;8.30;;;1.50;99.90;;;;;;5051384;28;20212;-48
2021/01/17 07:01:44;;;;;;;10.07;7.60;;;1.80;99.90;;;;;;5051388;28;20239;-48
2021/01/17 07:04:33;;;;;;;9.05;6.85;;;1.40;99.90;;;;;;5050933;28;20203;-47
2021/01/17 07:07:29;;;;;;;10.95;6.72;;;1.60;99.90;;;;;;5051084;28;20194;-48
2021/01/17 07:10:00;;;;;;;9.32;7.50;;;1.20;99.90;;;;;;5051021;28;20196;-48
2021/01/17 07:12:41;;;;;;;10.07;6.85;;;1.10;99.90;;;;;;5050908;28;20558;-48
2021/01/17 07:15:09;;;;;;;7.10;6.28;;;1.50;99.90;;;;;;5051000;28;20245;-48
2021/01/17 07:17:37;;;;;;;10.45;7.15;;;1.40;99.90;;;;;;5050935;28;20631;-48
2021/01/17 07:20:07;;;;;;;10.30;6.82;;;1.10;99.90;;;;;;5050481;28;20218;-48
2021/01/17 07:22:34;;;;;;;9.93;7.50;;;1.10;99.90;;;;;;5050884;28;20196;-48
2021/01/17 07:25:06;;;;;;;9.88;6.72;;;1.30;99.90;;;;;;5051144;28;20192;-48
2021/01/17 07:28:04;;;;;;;9.30;6.65;;;1.20;99.90;;;;;;5051073;28;20350;-48
2021/01/17 07:30:44;;;;;;;9.88;6.75;;;1.00;99.90;;;;;;4970125;28;20226;-48
2021/01/17 07:33:11;;;;;;;8.88;6.68;;;1.20;99.90;;;;;;5040040;28;20214;-48
2021/01/17 07:35:39;;;;;;;9.38;6.63;;;1.10;99.90;;;;;;5050722;28;20219;-48
2021/01/17 07:38:14;;;;;;;11.00;7.80;;;0.70;99.90;;;;;;5050890;28;20217;-48
2021/01/17 07:40:50;;;;;;;8.48;6.30;;;1.40;99.90;;;;;;5050894;28;20195;-49
2021/01/17 07:43:19;;;;;;;10.45;6.88;;;1.20;99.90;;;;;;5050496;28;20202;-49
2021/01/17 07:45:46;;;;;;;7.88;6.25;;;1.30;99.90;;;;;;5050915;28;20188;-49
2021/01/17 07:48:14;;;;;;;8.93;7.10;;;1.40;99.90;;;;;;5050702;28;20214;-49
2021/01/17 07:50:42;;;;;;;9.60;7.03;;;1.50;99.90;;;;;;5050887;28;20196;-49
2021/01/17 07:53:34;;;;;;;9.48;7.20;;;1.80;99.90;;;;;;5032601;28;20222;-49
2021/01/17 07:56:07;;;;;;;10.55;8.00;;;1.50;99.90;;;;;;5050593;28;20667;-47
2021/01/17 07:58:38;;;;;;;10.73;7.22;;;0.80;99.90;;;;;;5050707;28;20222;-48
2021/01/17 08:01:04;;;;;;;8.80;6.43;;;1.50;99.90;;;;;;5050686;28;20245;-48
2021/01/17 08:03:31;;;;;;;11.25;8.15;;;1.40;99.90;;;;;;5050372;28;20192;-48
2021/01/17 08:05:59;;;;;;;10.43;7.78;;;1.60;99.90;;;;;;5051830;28;20678;-48
2021/01/17 08:08:47;;;;;;;10.05;7.38;;;1.20;99.90;;;;;;5050331;28;20234;-49
2021/01/17 08:11:39;;;;;;;11.63;7.10;;;1.50;99.90;;;;;;5050686;28;20537;-49
2021/01/17 08:14:21;;;;;;;10.18;7.72;;;1.70;99.90;;;;;;5050269;28;20267;-49
2021/01/17 08:17:11;;;;;;;10.20;8.65;;;1.40;99.90;;;;;;5031068;28;20221;-49
2021/01/17 08:19:43;;;;;;;9.65;7.13;;;1.60;99.90;;;;;;5031044;28;20220;-48
2021/01/17 08:22:45;;;;;;;11.48;8.73;;;1.40;99.90;;;;;;5013603;28;20230;-48
2021/01/17 08:25:15;;;;;;;9.90;7.50;;;1.50;99.90;;;;;;5031354;28;20196;-49
2021/01/17 08:27:43;;;;;;;11.00;8.25;;;1.60;99.90;;;;;;5031317;28;20219;-49
2021/01/17 08:30:21;;;;;;;9.52;8.20;;;1.80;99.90;;;;;;5031074;28;20283;-49
2021/01/17 08:32:49;;;;;;;11.00;8.68;;;1.80;99.90;;;;;;5033490;28;20197;-49
2021/01/17 08:35:32;;;;;;;13.05;8.95;;;2.10;99.90;;;;;;5034509;28;20257;-49
2021/01/17 08:38:18;;;;;;;12.35;8.75;;;1.60;99.90;;;;;;5034162;28;20240;-49
2021/01/17 08:40:47;;;;;;;10.05;7.30;;;1.70;99.90;;;;;;5034143;28;20201;-48
2021/01/17 08:43:16;;;;;;;9.15;7.30;;;1.60;99.90;;;;;;5033684;28;20200;-48
2021/01/17 08:45:45;;;;;;;8.40;7.10;;;1.60;99.90;;;;;;5033999;28;20662;-49
2021/01/17 08:48:23;;;;;;;8.63;7.50;;;2.00;99.90;;;;;;5034147;28;20222;-49
2021/01/17 08:50:50;;;;;;;9.68;7.57;;;1.00;99.90;;;;;;5034174;28;20188;-49
2021/01/17 08:53:33;;;;;;;13.68;8.25;;;1.50;99.90;;;;;;5033981;28;20196;-48
2021/01/17 08:56:03;;;;;;;12.68;7.93;;;1.60;99.90;;;;;;5034163;28;20203;-49
2021/01/17 08:58:44;;;;;;;9.38;7.90;;;1.20;99.90;;;;;;5033925;28;20303;-48
2021/01/17 09:01:13;;;;;;;11.02;8.07;;;1.40;99.90;;;;;;5034382;28;20200;-48
2021/01/17 09:03:56;;;;;;;12.20;8.77;;;1.70;99.90;;;;;;5058065;28;20257;-47
2021/01/17 09:06:28;;;;;;;10.73;8.60;;;1.60;99.90;;;;;;5074027;28;20203;-48
2021/01/17 09:09:04;;;;;;;13.95;9.68;;;0.90;99.90;;;;;;5059338;28;20587;-48
2021/01/17 09:11:37;;;;;;;19.13;12.95;;;1.50;99.90;;;;;;5054267;28;20198;-47
2021/01/17 09:14:33;;;;;;;11.32;8.77;;;1.90;99.90;;;;;;5053657;28;20331;-48
2021/01/17 09:17:02;;;;;;;12.75;9.43;;;1.90;99.90;;;;;;5033810;28;20208;-49
2021/01/17 09:19:31;;;;;;;14.95;9.55;;;1.30;99.90;;;;;;5033860;28;20560;-49
2021/01/17 09:22:00;;;;;;;11.75;10.02;;;1.80;99.90;;;;;;5034033;28;20273;-49
2021/01/17 09:24:28;;;;;;;14.07;9.75;;;1.80;99.90;;;;;;5033644;28;20254;-48
2021/01/17 09:26:55;;;;;;;11.43;8.75;;;2.10;99.90;;;;;;5033423;28;20202;-48
2021/01/17 09:29:28;;;;;;;14.40;9.95;;;1.90;99.90;;;;;;5033392;28;20688;-49
2021/01/17 09:31:58;;;;;;;11.27;9.57;;;2.40;99.90;;;;;;5033835;28;20263;-48
2021/01/17 09:34:27;;;;;;;11.57;9.00;;;2.20;99.90;;;;;;5033391;28;20193;-48
2021/01/17 09:36:55;;;;;;;14.95;11.27;;;2.10;99.90;;;;;;5033335;28;20197;-48
2021/01/17 09:39:40;;;;;;;15.00;11.38;;;2.40;99.90;;;;;;5033536;28;20809;-48
2021/01/17 09:42:09;;;;;;;11.27;7.72;;;2.20;99.90;;;;;;5033088;28;20204;-47
2021/01/17 09:44:36;;;;;;;11.52;8.95;;;2.20;99.90;;;;;;5032357;28;20193;-49
2021/01/17 09:47:04;;;;;;;11.75;8.38;;;2.30;99.90;;;;;;5032883;28;20212;-49
2021/01/17 09:49:32;;;;;;;10.55;8.60;;;2.50;99.90;;;;;;5033138;28;20937;-49
2021/01/17 09:52:00;;;;;;;13.65;9.13;;;1.90;99.90;;;;;;5033043;28;20261;-48
2021/01/17 09:54:27;;;;;;;14.27;9.65;;;2.50;99.90;;;;;;5032966;28;20200;-49
2021/01/17 09:56:53;;;;;;;12.35;8.45;;;2.60;99.90;;;;;;5015429;28;20204;-47
2021/01/17 09:59:23;;;;;;;13.35;9.25;;;2.60;99.90;;;;;;5033135;28;20205;-49
2021/01/17 10:01:51;;;;;;;14.63;9.00;;;2.50;99.90;;;;;;5032981;28;20196;-48
2021/01/17 10:04:22;;;;;;;13.63;8.63;;;2.70;99.90;;;;;;5032877;28;20196;-49
2021/01/17 10:06:51;;;;;;;11.82;9.15;;;2.90;99.90;;;;;;5015265;28;20204;-49
2021/01/17 10:09:19;;;;;;;11.25;8.13;;;2.90;99.90;;;;;;5098039;22;20235;-47
2021/01/17 10:11:45;;;;;;;11.20;7.90;;;2.80;99.90;;;;;;5092988;28;20696;-47
2021/01/17 10:14:12;;;;;;;14.80;9.27;;;2.90;99.90;;;;;;5092589;28;20194;-46
2021/01/17 10:16:39;;;;;;;14.48;9.80;;;2.50;99.90;;;;;;5092851;28;20361;-47
2021/01/17 10:19:07;;;;;;;13.23;9.30;;;2.60;99.90;;;;;;5092899;28;20309;-47
2021/01/17 10:21:39;;;;;;;12.63;9.38;;;2.10;99.90;;;;;;5092755;28;20182;-47
2021/01/17 10:24:08;;;;;;;11.88;9.85;;;2.50;99.90;;;;;;5092362;28;20300;-47
2021/01/17 10:26:35;;;;;;;13.57;9.18;;;2.80;99.90;;;;;;5092914;28;20195;-46
2021/01/17 10:29:06;;;;;;;14.43;10.38;;;2.90;99.90;;;;;;5092893;28;20289;-46
2021/01/17 10:31:36;;;;;;;16.33;10.48;;;2.70;99.90;;;;;;5092931;28;20190;-46
2021/01/17 10:34:04;;;;;;;17.40;10.77;;;2.80;99.90;;;;;;5092319;28;20225;-46
2021/01/17 10:36:30;;;;;;;18.48;12.10;;;2.90;99.90;;;;;;5092750;28;20269;-46
2021/01/17 10:38:57;;;;;;;16.85;10.38;;;2.90;99.90;;;;;;5092935;28;20218;-46
2021/01/17 10:41:27;;;;;;;18.92;11.50;;;2.90;99.90;;;;;;5092677;28;20199;-46
2021/01/17 10:44:08;;;;;;;14.95;10.00;;;3.10;99.90;;;;;;5092467;28;20585;-46
2021/01/17 10:46:42;;;;;;;18.65;11.00;;;3.30;99.90;;;;;;5093342;28;20218;-46
2021/01/17 10:49:15;;;;;;;14.30;10.50;;;3.20;99.90;;;;;;5092810;28;20218;-47
2021/01/17 10:51:46;;;;;;;14.88;11.43;;;3.40;99.90;;;;;;5092376;28;20674;-46
2021/01/17 10:54:21;;;;;;;16.90;11.45;;;3.60;99.90;;;;;;5091888;28;20724;-45
2021/01/17 10:56:50;;;;;;;21.00;11.50;;;3.30;99.90;;;;;;5092085;28;20190;-46
2021/01/17 10:59:24;;;;;;;18.30;11.77;;;3.20;99.90;;;;;;5092294;28;20300;-46
2021/01/17 11:01:50;;;;;;;15.65;10.75;;;3.70;99.90;;;;;;5093402;28;20205;-45
2021/01/17 11:04:17;;;;;;;16.70;11.70;;;3.50;99.90;;;;;;5093468;28;20195;-46
2021/01/17 11:06:44;;;;;;;15.98;10.98;;;3.50;99.90;;;;;;5093695;28;20198;-46
2021/01/17 11:09:13;;;;;;;20.45;10.85;;;3.60;99.90;;;;;;5092931;28;20313;-45
2021/01/17 11:11:45;;;;;;;14.32;10.05;;;3.90;99.90;;;;;;5092285;28;20228;-46
2021/01/17 11:14:13;;;;;;;15.82;10.40;;;3.60;99.90;;;;;;5091667;28;20194;-46
2021/01/17 11:16:41;;;;;;;16.55;10.95;;;3.70;99.90;;;;;;5092235;28;20194;-47
2021/01/17 11:19:12;;;;;;;18.55;11.18;;;3.80;99.90;;;;;;5092232;28;20218;-47
2021/01/17 11:21:39;;;;;;;15.93;11.52;;;4.00;99.90;;;;;;5090622;28;20630;-46
2021/01/17 11:24:06;;;;;;;16.40;10.80;;;3.70;99.90;;;;;;5091482;28;20230;-46
2021/01/17 11:26:33;;;;;;;17.65;12.23;;;4.00;99.90;;;;;;5091869;28;20195;-46
2021/01/17 11:29:01;;;;;;;17.70;11.32;;;3.80;99.90;;;;;;5092155;28;20279;-46
2021/01/17 11:31:29;;;;;;;18.90;13.77;;;4.00;99.90;;;;;;5091902;28;20198;-45
2021/01/17 11:33:56;;;;;;;20.35;12.63;;;3.90;99.90;;;;;;5091634;28;20229;-46
2021/01/17 11:36:25;;;;;;;21.13;12.15;;;3.70;99.90;;;;;;5091910;28;20190;-46
2021/01/17 11:38:53;;;;;;;20.40;12.73;;;4.10;99.90;;;;;;5091824;28;20260;-46
2021/01/17 11:41:22;;;;;;;16.38;12.02;;;4.10;99.90;;;;;;5092444;28;20194;-46
2021/01/17 11:43:50;;;;;;;22.35;11.32;;;4.10;99.90;;;;;;5091949;28;20667;-46
2021/01/17 11:46:17;;;;;;;19.45;12.02;;;4.30;99.90;;;;;;5092052;28;20191;-46
2021/01/17 11:48:45;;;;;;;17.42;11.82;;;4.20;99.90;;;;;;5091719;28;20301;-46
2021/01/17 11:51:12;;;;;;;16.77;11.90;;;4.30;99.90;;;;;;5091439;28;20225;-47
2021/01/17 11:53:39;;;;;;;16.40;11.57;;;4.20;99.90;;;;;;5092022;28;20210;-47
2021/01/17 11:56:06;;;;;;;20.83;12.75;;;4.20;99.90;;;;;;5092557;28;20187;-47
2021/01/17 11:58:40;;;;;;;16.30;12.05;;;4.30;99.90;;;;;;5093130;28;20704;-46
2021/01/17 12:01:06;;;;;;;18.42;12.05;;;4.30;99.90;;;;;;5092781;28;20232;-46
2021/01/17 12:03:35;;;;;;;19.58;11.88;;;4.20;99.90;;;;;;5091304;28;20272;-46
2021/01/17 12:06:08;;;;;;;20.17;13.60;;;4.10;99.90;;;;;;5091730;28;20187;-46
2021/01/17 12:08:55;;;;;;;16.38;11.20;;;4.10;99.90;;;;;;5095338;28;20228;-46
2021/01/17 12:11:29;;;;;;;19.75;12.90;;;3.70;99.90;;;;;;5095500;28;20249;-46
2021/01/17 12:13:56;;;;;;;18.17;11.60;;;4.10;99.90;;;;;;5095538;28;20532;-46
2021/01/17 12:16:27;;;;;;;21.15;13.23;;;4.40;99.90;;;;;;5094764;28;20195;-46
2021/01/17 12:18:54;;;;;;;18.42;13.20;;;4.40;99.90;;;;;;5095966;28;20219;-46
2021/01/17 12:21:22;;;;;;;20.95;12.90;;;4.20;99.90;;;;;;5096532;28;20680;-46
2021/01/17 12:23:49;;;;;;;18.67;12.45;;;4.20;99.90;;;;;;5095374;28;20286;-46
2021/01/17 12:26:16;;;;;;;19.17;12.52;;;4.30;99.90;;;;;;5095950;28;20655;-47
2021/01/17 12:28:43;;;;;;;16.02;11.85;;;4.10;99.90;;;;;;5095620;28;20377;-45
2021/01/17 12:31:10;;;;;;;20.58;13.18;;;4.30;99.90;;;;;;5095133;28;20218;-45
2021/01/17 12:33:37;;;;;;;19.15;13.18;;;4.30;99.90;;;;;;5094836;28;20187;-47
2021/01/17 12:36:06;;;;;;;17.52;12.25;;;4.20;99.90;;;;;;5094820;28;20247;-46
2021/01/17 12:38:34;;;;;;;17.40;11.80;;;4.20;99.90;;;;;;5095168;28;20643;-46
2021/01/17 12:41:02;;;;;;;19.10;11.98;;;4.20;99.90;;;;;;5094937;28;20199;-46
2021/01/17 12:43:28;;;;;;;16.83;11.60;;;4.30;99.90;;;;;;5094753;28;20198;-45
2021/01/17 12:45:55;;;;;;;18.20;11.90;;;4.30;99.90;;;;;;5094664;28;20198;-48
2021/01/17 12:48:21;;;;;;;17.65;12.52;;;4.30;99.90;;;;;;5094289;28;20210;-47
2021/01/17 12:50:48;;;;;;;16.42;12.32;;;4.30;99.90;;;;;;5094804;28;20191;-46
2021/01/17 12:53:15;;;;;;;17.85;12.30;;;4.40;99.90;;;;;;5094760;28;20198;-46
2021/01/17 12:55:46;;;;;;;17.60;12.10;;;4.40;99.90;;;;;;5094646;28;20278;-45
2021/01/17 12:58:13;;;;;;;17.20;11.80;;;4.40;99.90;;;;;;5095005;28;20729;-45
2021/01/17 13:00:39;;;;;;;18.60;13.50;;;4.40;99.90;;;;;;5095922;28;20201;-46
2021/01/17 13:03:06;;;;;;;20.42;13.55;;;4.40;99.90;;;;;;5095980;28;20199;-46